createdAt,value
2018-10-12T04:12:26.181Z,16.20
2018-10-12T04:18:29.642Z,16.20
2018-10-12T04:24:33.056Z,16.10
2018-10-12T04:30:36.605Z,16.00
2018-10-12T04:36:40.011Z,15.90
2018-10-12T04:42:43.656Z,15.90
2018-10-12T04:48:48.911Z,15.80
2018-10-12T04:54:52.333Z,15.70
2018-10-12T05:00:55.831Z,15.70
2018-10-12T05:06:59.362Z,15.70
2018-10-12T05:13:02.955Z,15.70
2018-10-12T05:19:07.474Z,15.70
2018-10-12T05:25:10.934Z,15.70
2018-10-12T05:31:15.509Z,15.60
2018-10-12T05:37:18.932Z,15.70
2018-10-12T05:43:22.393Z,15.70
2018-10-12T05:49:42.755Z,15.70
2018-10-12T05:55:47.245Z,15.80
2018-10-12T06:01:50.753Z,15.80
2018-10-12T06:07:54.252Z,15.80
2018-10-12T06:13:57.679Z,15.90
2018-10-12T06:20:01.071Z,15.90
2018-10-12T06:26:05.114Z,16.00
2018-10-12T06:32:08.553Z,16.10
2018-10-12T06:38:12.025Z,16.20
2018-10-12T06:44:15.411Z,16.30
2018-10-12T06:50:18.918Z,16.40
2018-10-12T06:56:23.894Z,16.50
2018-10-12T07:02:27.479Z,16.60
2018-10-12T07:08:30.988Z,16.80
2018-10-12T07:14:35.120Z,16.90
2018-10-12T07:20:38.495Z,17.10
2018-10-12T07:26:41.943Z,17.20
2018-10-12T07:32:45.433Z,17.40
2018-10-12T07:38:48.891Z,17.60
2018-10-12T07:44:52.337Z,17.90
2018-10-12T07:50:55.835Z,18.10
2018-10-12T07:57:04.948Z,18.20
2018-10-12T08:03:08.507Z,18.40
2018-10-12T08:09:11.979Z,18.50
2018-10-12T08:15:15.432Z,18.70
2018-10-12T08:21:19.037Z,18.90
2018-10-12T08:27:23.129Z,19.00
2018-10-12T08:33:26.658Z,19.20
2018-10-12T08:39:30.216Z,19.30
2018-10-12T08:45:33.856Z,19.40
2018-10-12T08:51:37.178Z,19.40
2018-10-12T08:57:40.763Z,19.50
2018-10-12T09:03:44.224Z,19.70
2018-10-12T09:09:47.638Z,19.90
2018-10-12T09:15:51.188Z,20.10
2018-10-12T09:21:54.909Z,20.30
2018-10-12T09:27:58.312Z,20.60
2018-10-12T09:34:02.251Z,20.80
2018-10-12T09:40:05.918Z,21.00
2018-10-12T09:46:09.336Z,21.00
2018-10-12T09:52:12.936Z,21.10
2018-10-12T09:58:16.336Z,21.10
2018-10-12T10:04:25.269Z,21.20
2018-10-12T10:10:28.689Z,21.30
2018-10-12T10:16:32.200Z,21.30
2018-10-12T10:22:35.655Z,21.40
2018-10-12T10:28:39.758Z,21.60
2018-10-12T10:34:44.309Z,21.70
2018-10-12T10:40:47.787Z,21.90
2018-10-12T10:46:51.200Z,22.00
2018-10-12T10:52:54.726Z,22.10
2018-10-12T10:58:58.271Z,22.30
2018-10-12T11:05:01.763Z,22.50
2018-10-12T11:11:05.832Z,22.60
2018-10-12T11:17:09.432Z,22.80
2018-10-12T11:23:12.849Z,22.90
2018-10-12T11:29:16.258Z,23.00
2018-10-12T11:35:19.840Z,23.20
2018-10-12T11:41:23.219Z,23.40
2018-10-12T11:47:27.677Z,23.60
2018-10-12T11:53:31.166Z,23.70
2018-10-12T11:59:36.171Z,23.90
2018-10-12T12:05:40.061Z,23.90
2018-10-12T12:11:43.555Z,23.90
2018-10-12T12:17:47.308Z,24.00
2018-10-12T12:23:50.709Z,24.00
2018-10-12T12:29:54.067Z,24.10
2018-10-12T12:35:57.892Z,24.30
2018-10-12T12:48:38.334Z,24.50
2018-10-12T12:54:41.536Z,24.50
2018-10-12T13:00:45.687Z,24.70
2018-10-12T13:06:49.136Z,24.70
2018-10-12T13:12:52.549Z,24.80
2018-10-12T13:18:56.022Z,24.90
2018-10-12T13:24:59.457Z,25.00
2018-10-12T13:31:02.824Z,25.10
2018-10-12T13:37:06.335Z,25.30
2018-10-12T13:43:10.537Z,25.40
2018-10-12T13:49:14.336Z,25.40
2018-10-12T13:55:17.781Z,25.50
2018-10-12T14:01:21.660Z,25.60
2018-10-12T14:07:25.157Z,25.70
2018-10-12T14:13:28.570Z,25.70
2018-10-12T14:19:32.283Z,25.80
2018-10-12T14:25:36.575Z,25.80
2018-10-12T14:31:40.465Z,25.80
2018-10-12T14:37:43.955Z,25.80
2018-10-12T14:43:47.844Z,25.80
2018-10-12T14:49:51.191Z,25.90
2018-10-12T14:55:54.591Z,26.00
2018-10-12T15:01:58.017Z,26.10
2018-10-12T15:08:05.620Z,26.10
2018-10-12T15:14:09.255Z,26.30
2018-10-12T15:20:12.615Z,26.40
2018-10-12T15:26:15.983Z,26.40
2018-10-12T15:32:19.407Z,26.50
2018-10-12T15:38:22.911Z,26.60
2018-10-12T15:44:26.298Z,26.50
2018-10-12T15:50:29.872Z,26.20
2018-10-12T15:56:33.461Z,25.80
2018-10-12T16:02:37.154Z,25.40
2018-10-12T16:08:40.892Z,25.10
2018-10-12T16:14:44.414Z,24.80
2018-10-12T16:20:47.917Z,24.50
2018-10-12T16:26:52.095Z,24.20
2018-10-12T16:32:55.595Z,24.00
2018-10-12T16:38:59.316Z,23.80
2018-10-12T16:45:02.819Z,23.50
2018-10-12T16:51:06.702Z,23.30
2018-10-12T16:57:10.155Z,23.10
2018-10-12T17:03:13.758Z,22.90
2018-10-12T17:09:18.732Z,22.70
2018-10-12T17:15:22.590Z,22.60
2018-10-12T17:21:26.198Z,22.50
2018-10-12T17:27:29.855Z,22.40
2018-10-12T17:33:34.229Z,22.20
2018-10-12T17:39:37.705Z,22.10
2018-10-12T17:45:41.203Z,22.00
2018-10-12T17:51:45.485Z,21.90
2018-10-12T17:57:49.054Z,21.80
2018-10-12T18:03:52.525Z,21.70
2018-10-12T18:09:57.620Z,21.60
2018-10-12T18:16:02.149Z,21.50
2018-10-12T18:22:05.945Z,21.40
2018-10-12T18:28:09.734Z,21.30
2018-10-12T18:34:13.263Z,21.30
2018-10-12T18:40:16.750Z,21.20
2018-10-12T18:46:20.337Z,21.10
2018-10-12T18:52:23.958Z,21.10
2018-10-12T18:58:27.525Z,21.00
2018-10-12T19:04:31.233Z,20.90
2018-10-12T19:10:35.506Z,20.80
2018-10-12T19:16:39.256Z,20.70
2018-10-12T19:22:43.320Z,20.60
2018-10-12T19:28:46.910Z,20.50
2018-10-12T19:34:50.835Z,20.50
2018-10-12T19:40:55.679Z,20.50
2018-10-12T19:46:59.473Z,20.40
2018-10-12T19:53:13.829Z,20.30
2018-10-12T19:59:17.554Z,20.30
2018-10-12T20:05:21.248Z,20.20
2018-10-12T20:11:24.714Z,20.20
2018-10-12T20:17:29.402Z,20.20
2018-10-12T20:23:32.932Z,20.20
2018-10-12T20:29:37.022Z,20.20
2018-10-12T20:35:45.516Z,20.20
2018-10-12T20:41:49.045Z,20.10
2018-10-12T20:47:52.537Z,20.20
2018-10-12T20:53:56.123Z,20.20
2018-10-12T21:00:00.886Z,19.90
2018-10-12T21:06:05.005Z,20.10
2018-10-12T21:12:09.948Z,20.00
2018-10-12T21:18:14.080Z,20.00
2018-10-12T21:24:17.598Z,20.00
2018-10-12T21:30:24.131Z,20.00
2018-10-12T21:36:31.290Z,20.00
2018-10-12T21:42:36.313Z,20.00
2018-10-12T21:48:40.791Z,20.10
2018-10-12T21:54:44.430Z,20.10
2018-10-12T22:00:54.624Z,20.10
2018-10-12T22:06:58.297Z,20.10
2018-10-12T22:13:02.195Z,20.10
2018-10-12T22:19:06.392Z,20.10
2018-10-12T22:25:10.343Z,20.00
2018-10-12T22:31:14.083Z,20.00
2018-10-12T22:37:18.324Z,19.90
2018-10-12T22:43:21.798Z,19.90
2018-10-12T22:49:25.309Z,20.00
2018-10-12T22:55:29.281Z,20.00
2018-10-12T23:01:33.777Z,20.00
2018-10-12T23:07:37.419Z,20.00
2018-10-12T23:13:41.025Z,20.10
2018-10-12T23:19:44.577Z,20.00
2018-10-12T23:25:48.366Z,20.00
2018-10-12T23:31:51.998Z,20.00
2018-10-12T23:37:55.439Z,19.90
2018-10-12T23:43:59.532Z,19.80
2018-10-12T23:50:03.084Z,19.70
2018-10-12T23:56:06.611Z,19.60
